sensor_id;sensor_type;location;lat;lon;timestamp;P1;durP1;ratioP1;P2;durP2;ratioP2
6259;SDS011;3163;51.516;4.000;2024-02-04T00:02:10;3.23;;;1.50;;
6259;SDS011;3163;51.516;4.000;2024-02-04T00:04:39;4.47;;;2.20;;
6259;SDS011;3163;51.516;4.000;2024-02-04T00:07:05;8.03;;;2.53;;
6259;SDS011;3163;51.516;4.000;2024-02-04T00:09:31;7.37;;;2.77;;
6259;SDS011;3163;51.516;4.000;2024-02-04T00:11:57;5.50;;;1.97;;
6259;SDS011;3163;51.516;4.000;2024-02-04T00:14:26;4.87;;;2.13;;
6259;SDS011;3163;51.516;4.000;2024-02-04T00:16:52;7.27;;;1.40;;
6259;SDS011;3163;51.516;4.000;2024-02-04T00:19:18;3.70;;;1.67;;
6259;SDS011;3163;51.516;4.000;2024-02-04T00:21:44;6.13;;;2.10;;
6259;SDS011;3163;51.516;4.000;2024-02-04T00:24:10;8.73;;;2.60;;
6259;SDS011;3163;51.516;4.000;2024-02-04T00:26:36;8.00;;;2.37;;
6259;SDS011;3163;51.516;4.000;2024-02-04T00:29:02;9.00;;;2.67;;
6259;SDS011;3163;51.516;4.000;2024-02-04T00:31:28;4.57;;;1.73;;
6259;SDS011;3163;51.516;4.000;2024-02-04T00:33:54;6.17;;;2.10;;
6259;SDS011;3163;51.516;4.000;2024-02-04T00:36:20;10.03;;;2.50;;
6259;SDS011;3163;51.516;4.000;2024-02-04T00:38:46;2.63;;;1.40;;
6259;SDS011;3163;51.516;4.000;2024-02-04T00:41:12;8.27;;;2.17;;
6259;SDS011;3163;51.516;4.000;2024-02-04T00:43:38;1.23;;;1.07;;
6259;SDS011;3163;51.516;4.000;2024-02-04T00:46:05;2.37;;;1.37;;
6259;SDS011;3163;51.516;4.000;2024-02-04T00:48:32;6.93;;;2.03;;
6259;SDS011;3163;51.516;4.000;2024-02-04T00:50:58;5.27;;;2.00;;
6259;SDS011;3163;51.516;4.000;2024-02-04T00:53:24;5.30;;;1.63;;
6259;SDS011;3163;51.516;4.000;2024-02-04T00:55:52;5.03;;;1.87;;
6259;SDS011;3163;51.516;4.000;2024-02-04T00:58:18;9.60;;;2.60;;
6259;SDS011;3163;51.516;4.000;2024-02-04T01:00:44;9.07;;;2.03;;
6259;SDS011;3163;51.516;4.000;2024-02-04T01:03:10;7.37;;;2.47;;
6259;SDS011;3163;51.516;4.000;2024-02-04T01:05:36;5.43;;;1.67;;
6259;SDS011;3163;51.516;4.000;2024-02-04T01:08:02;3.93;;;1.57;;
6259;SDS011;3163;51.516;4.000;2024-02-04T01:10:28;10.93;;;2.37;;
6259;SDS011;3163;51.516;4.000;2024-02-04T01:12:54;5.83;;;1.97;;
6259;SDS011;3163;51.516;4.000;2024-02-04T01:15:20;1.77;;;1.30;;
6259;SDS011;3163;51.516;4.000;2024-02-04T01:17:45;6.73;;;1.80;;
6259;SDS011;3163;51.516;4.000;2024-02-04T01:20:11;1.73;;;1.57;;
6259;SDS011;3163;51.516;4.000;2024-02-04T01:22:38;2.93;;;1.40;;
6259;SDS011;3163;51.516;4.000;2024-02-04T01:25:04;4.33;;;2.23;;
6259;SDS011;3163;51.516;4.000;2024-02-04T01:27:30;4.23;;;1.97;;
6259;SDS011;3163;51.516;4.000;2024-02-04T01:29:56;10.50;;;2.20;;
6259;SDS011;3163;51.516;4.000;2024-02-04T01:32:22;3.27;;;1.63;;
6259;SDS011;3163;51.516;4.000;2024-02-04T01:34:48;2.47;;;1.30;;
6259;SDS011;3163;51.516;4.000;2024-02-04T01:37:14;7.67;;;2.43;;
6259;SDS011;3163;51.516;4.000;2024-02-04T01:39:40;4.10;;;2.20;;
6259;SDS011;3163;51.516;4.000;2024-02-04T01:42:06;8.63;;;2.97;;
6259;SDS011;3163;51.516;4.000;2024-02-04T01:44:32;6.37;;;2.13;;
6259;SDS011;3163;51.516;4.000;2024-02-04T01:46:58;6.50;;;2.30;;
6259;SDS011;3163;51.516;4.000;2024-02-04T01:49:24;6.90;;;2.27;;
6259;SDS011;3163;51.516;4.000;2024-02-04T01:51:51;3.60;;;2.17;;
6259;SDS011;3163;51.516;4.000;2024-02-04T01:54:17;4.43;;;1.73;;
6259;SDS011;3163;51.516;4.000;2024-02-04T01:56:46;7.13;;;2.63;;
6259;SDS011;3163;51.516;4.000;2024-02-04T01:59:12;6.20;;;2.33;;
6259;SDS011;3163;51.516;4.000;2024-02-04T02:01:38;8.17;;;2.53;;
6259;SDS011;3163;51.516;4.000;2024-02-04T02:04:04;7.37;;;2.30;;
6259;SDS011;3163;51.516;4.000;2024-02-04T02:06:31;6.53;;;2.10;;
6259;SDS011;3163;51.516;4.000;2024-02-04T02:08:58;6.10;;;2.30;;
6259;SDS011;3163;51.516;4.000;2024-02-04T02:11:27;7.93;;;2.30;;
6259;SDS011;3163;51.516;4.000;2024-02-04T02:13:57;11.40;;;2.27;;
6259;SDS011;3163;51.516;4.000;2024-02-04T02:16:26;4.90;;;1.87;;
6259;SDS011;3163;51.516;4.000;2024-02-04T02:18:53;12.73;;;2.87;;
6259;SDS011;3163;51.516;4.000;2024-02-04T02:24:14;3.27;;;1.90;;
6259;SDS011;3163;51.516;4.000;2024-02-04T02:26:41;5.47;;;1.70;;
6259;SDS011;3163;51.516;4.000;2024-02-04T02:29:08;5.70;;;2.10;;
6259;SDS011;3163;51.516;4.000;2024-02-04T02:31:38;9.83;;;3.00;;
6259;SDS011;3163;51.516;4.000;2024-02-04T02:34:04;7.40;;;1.83;;
6259;SDS011;3163;51.516;4.000;2024-02-04T02:36:33;4.97;;;1.53;;
6259;SDS011;3163;51.516;4.000;2024-02-04T02:39:03;3.10;;;1.63;;
6259;SDS011;3163;51.516;4.000;2024-02-04T02:41:34;5.07;;;1.87;;
6259;SDS011;3163;51.516;4.000;2024-02-04T02:44:00;3.37;;;1.70;;
6259;SDS011;3163;51.516;4.000;2024-02-04T02:46:27;5.07;;;1.73;;
6259;SDS011;3163;51.516;4.000;2024-02-04T02:48:53;6.07;;;2.40;;
6259;SDS011;3163;51.516;4.000;2024-02-04T02:51:19;4.70;;;1.40;;
6259;SDS011;3163;51.516;4.000;2024-02-04T02:53:45;1.73;;;1.20;;
6259;SDS011;3163;51.516;4.000;2024-02-04T02:56:11;11.67;;;2.10;;
6259;SDS011;3163;51.516;4.000;2024-02-04T02:58:37;4.03;;;1.83;;
6259;SDS011;3163;51.516;4.000;2024-02-04T03:01:03;7.20;;;2.10;;
6259;SDS011;3163;51.516;4.000;2024-02-04T03:03:29;7.17;;;1.80;;
6259;SDS011;3163;51.516;4.000;2024-02-04T03:05:55;9.80;;;2.33;;
6259;SDS011;3163;51.516;4.000;2024-02-04T03:08:21;3.07;;;1.87;;
6259;SDS011;3163;51.516;4.000;2024-02-04T03:10:47;4.47;;;1.90;;
6259;SDS011;3163;51.516;4.000;2024-02-04T03:13:13;4.90;;;2.27;;
6259;SDS011;3163;51.516;4.000;2024-02-04T03:15:39;4.13;;;2.17;;
6259;SDS011;3163;51.516;4.000;2024-02-04T03:18:07;8.47;;;1.93;;
6259;SDS011;3163;51.516;4.000;2024-02-04T03:20:33;4.67;;;2.30;;
6259;SDS011;3163;51.516;4.000;2024-02-04T03:22:59;8.87;;;2.40;;
6259;SDS011;3163;51.516;4.000;2024-02-04T03:25:25;6.40;;;2.57;;
6259;SDS011;3163;51.516;4.000;2024-02-04T03:27:53;10.87;;;2.27;;
6259;SDS011;3163;51.516;4.000;2024-02-04T03:30:19;7.23;;;2.10;;
6259;SDS011;3163;51.516;4.000;2024-02-04T03:32:45;5.63;;;1.43;;
6259;SDS011;3163;51.516;4.000;2024-02-04T03:35:11;5.07;;;2.03;;
6259;SDS011;3163;51.516;4.000;2024-02-04T03:37:37;5.40;;;1.67;;
6259;SDS011;3163;51.516;4.000;2024-02-04T03:40:03;7.80;;;2.03;;
6259;SDS011;3163;51.516;4.000;2024-02-04T03:42:29;5.40;;;1.97;;
6259;SDS011;3163;51.516;4.000;2024-02-04T03:44:55;4.70;;;2.30;;
6259;SDS011;3163;51.516;4.000;2024-02-04T03:47:21;9.60;;;2.03;;
6259;SDS011;3163;51.516;4.000;2024-02-04T03:49:47;7.07;;;2.40;;
6259;SDS011;3163;51.516;4.000;2024-02-04T03:52:13;3.93;;;1.70;;
6259;SDS011;3163;51.516;4.000;2024-02-04T03:54:39;7.50;;;1.73;;
6259;SDS011;3163;51.516;4.000;2024-02-04T03:57:05;5.33;;;1.97;;
6259;SDS011;3163;51.516;4.000;2024-02-04T03:59:31;4.90;;;2.07;;
6259;SDS011;3163;51.516;4.000;2024-02-04T04:01:57;7.80;;;2.37;;
6259;SDS011;3163;51.516;4.000;2024-02-04T04:04:23;1.83;;;1.43;;
6259;SDS011;3163;51.516;4.000;2024-02-04T04:06:51;7.10;;;1.97;;
6259;SDS011;3163;51.516;4.000;2024-02-04T04:09:17;2.53;;;1.43;;
6259;SDS011;3163;51.516;4.000;2024-02-04T04:11:43;4.67;;;2.03;;
6259;SDS011;3163;51.516;4.000;2024-02-04T04:14:09;3.70;;;1.50;;
6259;SDS011;3163;51.516;4.000;2024-02-04T04:16:35;3.23;;;1.43;;
6259;SDS011;3163;51.516;4.000;2024-02-04T04:19:01;6.53;;;1.57;;
6259;SDS011;3163;51.516;4.000;2024-02-04T04:21:27;4.97;;;2.37;;
6259;SDS011;3163;51.516;4.000;2024-02-04T04:23:53;4.30;;;1.73;;
6259;SDS011;3163;51.516;4.000;2024-02-04T04:26:19;5.82;;;2.80;;
6259;SDS011;3163;51.516;4.000;2024-02-04T04:28:45;5.77;;;1.77;;
6259;SDS011;3163;51.516;4.000;2024-02-04T04:31:11;6.37;;;1.00;;
6259;SDS011;3163;51.516;4.000;2024-02-04T04:33:37;3.37;;;1.33;;
6259;SDS011;3163;51.516;4.000;2024-02-04T04:36:03;5.87;;;2.13;;
6259;SDS011;3163;51.516;4.000;2024-02-04T04:38:29;7.40;;;2.03;;
6259;SDS011;3163;51.516;4.000;2024-02-04T04:40:55;5.40;;;1.50;;
6259;SDS011;3163;51.516;4.000;2024-02-04T04:43:21;8.60;;;1.70;;
6259;SDS011;3163;51.516;4.000;2024-02-04T04:45:47;3.93;;;1.70;;
6259;SDS011;3163;51.516;4.000;2024-02-04T04:48:13;12.33;;;2.10;;
6259;SDS011;3163;51.516;4.000;2024-02-04T04:50:39;6.77;;;1.97;;
6259;SDS011;3163;51.516;4.000;2024-02-04T04:53:05;6.57;;;1.93;;
6259;SDS011;3163;51.516;4.000;2024-02-04T04:55:31;2.50;;;1.37;;
6259;SDS011;3163;51.516;4.000;2024-02-04T04:57:57;2.67;;;1.63;;
6259;SDS011;3163;51.516;4.000;2024-02-04T05:00:23;5.43;;;1.93;;
6259;SDS011;3163;51.516;4.000;2024-02-04T05:02:49;4.27;;;1.70;;
6259;SDS011;3163;51.516;4.000;2024-02-04T05:05:15;1.80;;;1.00;;
6259;SDS011;3163;51.516;4.000;2024-02-04T05:07:41;2.57;;;1.30;;
6259;SDS011;3163;51.516;4.000;2024-02-04T05:10:07;2.70;;;1.80;;
6259;SDS011;3163;51.516;4.000;2024-02-04T05:12:34;6.07;;;1.90;;
6259;SDS011;3163;51.516;4.000;2024-02-04T05:15:00;2.40;;;1.37;;
6259;SDS011;3163;51.516;4.000;2024-02-04T05:17:27;4.20;;;1.23;;
6259;SDS011;3163;51.516;4.000;2024-02-04T05:19:53;1.57;;;0.83;;
6259;SDS011;3163;51.516;4.000;2024-02-04T05:22:19;5.93;;;1.57;;
6259;SDS011;3163;51.516;4.000;2024-02-04T05:24:45;2.50;;;1.20;;
6259;SDS011;3163;51.516;4.000;2024-02-04T05:27:11;2.50;;;1.20;;
6259;SDS011;3163;51.516;4.000;2024-02-04T05:29:37;2.57;;;1.03;;
6259;SDS011;3163;51.516;4.000;2024-02-04T05:32:03;4.37;;;1.63;;
6259;SDS011;3163;51.516;4.000;2024-02-04T05:34:29;3.17;;;1.20;;
6259;SDS011;3163;51.516;4.000;2024-02-04T05:36:59;6.87;;;1.83;;
6259;SDS011;3163;51.516;4.000;2024-02-04T05:39:25;5.93;;;1.63;;
6259;SDS011;3163;51.516;4.000;2024-02-04T05:41:51;7.27;;;1.50;;
6259;SDS011;3163;51.516;4.000;2024-02-04T05:44:17;3.10;;;1.47;;
6259;SDS011;3163;51.516;4.000;2024-02-04T05:46:43;4.40;;;1.10;;
6259;SDS011;3163;51.516;4.000;2024-02-04T05:49:09;4.10;;;1.13;;
6259;SDS011;3163;51.516;4.000;2024-02-04T05:51:39;6.60;;;1.23;;
6259;SDS011;3163;51.516;4.000;2024-02-04T05:54:08;4.43;;;1.70;;
6259;SDS011;3163;51.516;4.000;2024-02-04T05:56:34;2.13;;;0.67;;
6259;SDS011;3163;51.516;4.000;2024-02-04T05:59:00;3.60;;;1.50;;
6259;SDS011;3163;51.516;4.000;2024-02-04T06:01:26;3.30;;;1.10;;
6259;SDS011;3163;51.516;4.000;2024-02-04T06:03:52;3.20;;;1.10;;
6259;SDS011;3163;51.516;4.000;2024-02-04T06:06:18;2.20;;;1.10;;
6259;SDS011;3163;51.516;4.000;2024-02-04T06:08:45;4.93;;;1.47;;
6259;SDS011;3163;51.516;4.000;2024-02-04T06:11:12;3.70;;;1.57;;
6259;SDS011;3163;51.516;4.000;2024-02-04T06:13:41;1.23;;;1.00;;
6259;SDS011;3163;51.516;4.000;2024-02-04T06:16:08;1.73;;;1.10;;
6259;SDS011;3163;51.516;4.000;2024-02-04T06:18:36;3.93;;;1.60;;
6259;SDS011;3163;51.516;4.000;2024-02-04T06:21:03;0.70;;;0.70;;
6259;SDS011;3163;51.516;4.000;2024-02-04T06:23:29;1.23;;;0.60;;
6259;SDS011;3163;51.516;4.000;2024-02-04T06:25:55;6.90;;;2.08;;
6259;SDS011;3163;51.516;4.000;2024-02-04T06:28:21;5.37;;;1.53;;
6259;SDS011;3163;51.516;4.000;2024-02-04T06:30:48;5.47;;;1.03;;
6259;SDS011;3163;51.516;4.000;2024-02-04T06:33:14;1.87;;;1.50;;
6259;SDS011;3163;51.516;4.000;2024-02-04T06:35:40;4.30;;;1.17;;
6259;SDS011;3163;51.516;4.000;2024-02-04T06:38:06;3.13;;;1.20;;
6259;SDS011;3163;51.516;4.000;2024-02-04T06:40:32;3.47;;;1.47;;
6259;SDS011;3163;51.516;4.000;2024-02-04T06:42:58;2.60;;;1.23;;
6259;SDS011;3163;51.516;4.000;2024-02-04T06:45:24;3.67;;;0.77;;
6259;SDS011;3163;51.516;4.000;2024-02-04T06:47:50;1.53;;;0.83;;
6259;SDS011;3163;51.516;4.000;2024-02-04T06:50:16;4.63;;;1.10;;
6259;SDS011;3163;51.516;4.000;2024-02-04T06:52:42;3.87;;;0.93;;
6259;SDS011;3163;51.516;4.000;2024-02-04T06:55:09;2.57;;;1.20;;
6259;SDS011;3163;51.516;4.000;2024-02-04T06:57:35;2.43;;;1.27;;
6259;SDS011;3163;51.516;4.000;2024-02-04T07:00:02;0.93;;;0.93;;
6259;SDS011;3163;51.516;4.000;2024-02-04T07:02:33;0.83;;;0.57;;
6259;SDS011;3163;51.516;4.000;2024-02-04T07:04:59;3.23;;;1.17;;
6259;SDS011;3163;51.516;4.000;2024-02-04T07:07:25;3.57;;;1.00;;
6259;SDS011;3163;51.516;4.000;2024-02-04T07:09:50;3.00;;;1.17;;
6259;SDS011;3163;51.516;4.000;2024-02-04T07:12:16;3.80;;;1.63;;
6259;SDS011;3163;51.516;4.000;2024-02-04T07:14:43;1.80;;;1.13;;
6259;SDS011;3163;51.516;4.000;2024-02-04T07:17:08;0.80;;;0.80;;
6259;SDS011;3163;51.516;4.000;2024-02-04T07:19:36;0.77;;;0.77;;
6259;SDS011;3163;51.516;4.000;2024-02-04T07:22:02;2.30;;;0.60;;
6259;SDS011;3163;51.516;4.000;2024-02-04T07:24:28;0.73;;;0.67;;
6259;SDS011;3163;51.516;4.000;2024-02-04T07:26:54;3.53;;;1.50;;
6259;SDS011;3163;51.516;4.000;2024-02-04T07:29:20;2.63;;;0.90;;
6259;SDS011;3163;51.516;4.000;2024-02-04T07:31:47;1.80;;;0.80;;
6259;SDS011;3163;51.516;4.000;2024-02-04T07:34:13;0.80;;;0.50;;
6259;SDS011;3163;51.516;4.000;2024-02-04T07:36:39;0.67;;;0.60;;
6259;SDS011;3163;51.516;4.000;2024-02-04T07:39:05;3.07;;;1.30;;
6259;SDS011;3163;51.516;4.000;2024-02-04T07:41:31;1.47;;;0.87;;
6259;SDS011;3163;51.516;4.000;2024-02-04T07:43:57;4.27;;;1.03;;
6259;SDS011;3163;51.516;4.000;2024-02-04T07:46:23;3.77;;;0.87;;
6259;SDS011;3163;51.516;4.000;2024-02-04T07:48:49;8.47;;;1.47;;
6259;SDS011;3163;51.516;4.000;2024-02-04T07:51:15;1.20;;;0.87;;
6259;SDS011;3163;51.516;4.000;2024-02-04T07:53:41;0.50;;;0.50;;
6259;SDS011;3163;51.516;4.000;2024-02-04T07:56:07;3.10;;;1.10;;
6259;SDS011;3163;51.516;4.000;2024-02-04T07:58:33;0.60;;;0.60;;
6259;SDS011;3163;51.516;4.000;2024-02-04T08:00:59;1.37;;;0.63;;
6259;SDS011;3163;51.516;4.000;2024-02-04T08:03:25;1.00;;;0.90;;
6259;SDS011;3163;51.516;4.000;2024-02-04T08:05:51;0.80;;;0.80;;
6259;SDS011;3163;51.516;4.000;2024-02-04T08:08:17;1.97;;;1.00;;
6259;SDS011;3163;51.516;4.000;2024-02-04T08:10:44;1.90;;;0.60;;
6259;SDS011;3163;51.516;4.000;2024-02-04T08:13:10;3.03;;;1.20;;
6259;SDS011;3163;51.516;4.000;2024-02-04T08:15:36;3.67;;;1.40;;
6259;SDS011;3163;51.516;4.000;2024-02-04T08:18:02;4.13;;;1.00;;
6259;SDS011;3163;51.516;4.000;2024-02-04T08:20:28;3.17;;;1.07;;
6259;SDS011;3163;51.516;4.000;2024-02-04T08:22:54;1.80;;;0.80;;
6259;SDS011;3163;51.516;4.000;2024-02-04T08:25:20;1.70;;;0.80;;
6259;SDS011;3163;51.516;4.000;2024-02-04T08:27:46;3.63;;;0.97;;
6259;SDS011;3163;51.516;4.000;2024-02-04T08:30:13;3.93;;;1.03;;
6259;SDS011;3163;51.516;4.000;2024-02-04T08:32:39;3.17;;;0.97;;
6259;SDS011;3163;51.516;4.000;2024-02-04T08:35:05;1.20;;;0.90;;
6259;SDS011;3163;51.516;4.000;2024-02-04T08:37:31;3.30;;;1.03;;
6259;SDS011;3163;51.516;4.000;2024-02-04T08:40:00;0.43;;;0.43;;
6259;SDS011;3163;51.516;4.000;2024-02-04T08:42:26;2.83;;;1.27;;
6259;SDS011;3163;51.516;4.000;2024-02-04T08:44:52;2.70;;;0.50;;
6259;SDS011;3163;51.516;4.000;2024-02-04T08:47:18;1.33;;;0.73;;
6259;SDS011;3163;51.516;4.000;2024-02-04T08:49:44;1.67;;;0.87;;
6259;SDS011;3163;51.516;4.000;2024-02-04T08:52:10;0.83;;;0.80;;
6259;SDS011;3163;51.516;4.000;2024-02-04T08:54:36;1.03;;;0.50;;
6259;SDS011;3163;51.516;4.000;2024-02-04T08:57:02;0.40;;;0.40;;
6259;SDS011;3163;51.516;4.000;2024-02-04T08:59:30;3.27;;;0.83;;
6259;SDS011;3163;51.516;4.000;2024-02-04T09:01:56;0.40;;;0.40;;
6259;SDS011;3163;51.516;4.000;2024-02-04T09:04:22;1.17;;;0.70;;
6259;SDS011;3163;51.516;4.000;2024-02-04T09:06:48;0.80;;;0.80;;
6259;SDS011;3163;51.516;4.000;2024-02-04T09:09:14;0.43;;;0.43;;
6259;SDS011;3163;51.516;4.000;2024-02-04T09:11:39;2.27;;;0.77;;
6259;SDS011;3163;51.516;4.000;2024-02-04T09:14:06;0.30;;;0.30;;
6259;SDS011;3163;51.516;4.000;2024-02-04T09:16:32;2.37;;;1.00;;
6259;SDS011;3163;51.516;4.000;2024-02-04T09:18:58;1.03;;;0.63;;
6259;SDS011;3163;51.516;4.000;2024-02-04T09:21:24;1.50;;;0.33;;
6259;SDS011;3163;51.516;4.000;2024-02-04T09:23:50;4.23;;;1.07;;
6259;SDS011;3163;51.516;4.000;2024-02-04T09:26:16;1.60;;;0.23;;
6259;SDS011;3163;51.516;4.000;2024-02-04T09:28:42;0.80;;;0.80;;
6259;SDS011;3163;51.516;4.000;2024-02-04T09:31:08;2.67;;;0.80;;
6259;SDS011;3163;51.516;4.000;2024-02-04T09:33:34;1.00;;;0.50;;
6259;SDS011;3163;51.516;4.000;2024-02-04T09:36:03;2.00;;;0.57;;
6259;SDS011;3163;51.516;4.000;2024-02-04T09:38:29;2.10;;;1.10;;
6259;SDS011;3163;51.516;4.000;2024-02-04T09:40:55;0.47;;;0.23;;
6259;SDS011;3163;51.516;4.000;2024-02-04T09:43:20;2.20;;;0.60;;
6259;SDS011;3163;51.516;4.000;2024-02-04T09:45:47;2.17;;;0.77;;
6259;SDS011;3163;51.516;4.000;2024-02-04T09:48:14;0.73;;;0.47;;
6259;SDS011;3163;51.516;4.000;2024-02-04T09:50:42;0.93;;;0.67;;
6259;SDS011;3163;51.516;4.000;2024-02-04T09:53:08;1.67;;;0.60;;
6259;SDS011;3163;51.516;4.000;2024-02-04T09:55:34;2.03;;;0.73;;
6259;SDS011;3163;51.516;4.000;2024-02-04T09:58:03;1.37;;;0.50;;
6259;SDS011;3163;51.516;4.000;2024-02-04T10:00:29;1.77;;;0.60;;
6259;SDS011;3163;51.516;4.000;2024-02-04T10:02:56;0.47;;;0.40;;
6259;SDS011;3163;51.516;4.000;2024-02-04T10:05:29;0.70;;;0.50;;
6259;SDS011;3163;51.516;4.000;2024-02-04T10:07:55;4.73;;;1.23;;
6259;SDS011;3163;51.516;4.000;2024-02-04T10:10:21;1.25;;;0.50;;
6259;SDS011;3163;51.516;4.000;2024-02-04T10:12:47;0.87;;;0.40;;
6259;SDS011;3163;51.516;4.000;2024-02-04T10:15:13;2.03;;;0.87;;
6259;SDS011;3163;51.516;4.000;2024-02-04T10:17:49;2.23;;;0.70;;
6259;SDS011;3163;51.516;4.000;2024-02-04T10:20:15;0.10;;;0.10;;
6259;SDS011;3163;51.516;4.000;2024-02-04T10:22:41;2.23;;;0.90;;
6259;SDS011;3163;51.516;4.000;2024-02-04T10:25:08;1.23;;;0.67;;
6259;SDS011;3163;51.516;4.000;2024-02-04T10:27:34;0.67;;;0.20;;
6259;SDS011;3163;51.516;4.000;2024-02-04T10:30:00;1.60;;;0.60;;
6259;SDS011;3163;51.516;4.000;2024-02-04T10:32:26;1.70;;;0.57;;
6259;SDS011;3163;51.516;4.000;2024-02-04T10:34:53;0.87;;;0.50;;
6259;SDS011;3163;51.516;4.000;2024-02-04T10:37:19;0.30;;;0.30;;
6259;SDS011;3163;51.516;4.000;2024-02-04T10:39:45;1.00;;;0.30;;
6259;SDS011;3163;51.516;4.000;2024-02-04T10:42:11;1.70;;;0.23;;
6259;SDS011;3163;51.516;4.000;2024-02-04T10:44:38;1.97;;;1.07;;
6259;SDS011;3163;51.516;4.000;2024-02-04T10:47:07;0.53;;;0.50;;
6259;SDS011;3163;51.516;4.000;2024-02-04T10:49:36;0.80;;;0.50;;
6259;SDS011;3163;51.516;4.000;2024-02-04T10:52:06;3.20;;;0.47;;
6259;SDS011;3163;51.516;4.000;2024-02-04T10:54:35;0.30;;;0.30;;
6259;SDS011;3163;51.516;4.000;2024-02-04T10:57:05;0.30;;;0.30;;
6259;SDS011;3163;51.516;4.000;2024-02-04T10:59:34;1.07;;;0.33;;
6259;SDS011;3163;51.516;4.000;2024-02-04T11:02:00;0.37;;;0.37;;
6259;SDS011;3163;51.516;4.000;2024-02-04T11:04:26;4.70;;;0.50;;
6259;SDS011;3163;51.516;4.000;2024-02-04T11:06:53;1.47;;;0.60;;
6259;SDS011;3163;51.516;4.000;2024-02-04T11:09:20;1.37;;;0.50;;
6259;SDS011;3163;51.516;4.000;2024-02-04T11:11:47;1.80;;;0.40;;
6259;SDS011;3163;51.516;4.000;2024-02-04T11:14:15;0.67;;;0.67;;
6259;SDS011;3163;51.516;4.000;2024-02-04T11:21:57;1.43;;;0.70;;
6259;SDS011;3163;51.516;4.000;2024-02-04T11:26:55;2.80;;;0.57;;
6259;SDS011;3163;51.516;4.000;2024-02-04T11:29:22;1.13;;;0.50;;
6259;SDS011;3163;51.516;4.000;2024-02-04T11:31:48;0.50;;;0.50;;
6259;SDS011;3163;51.516;4.000;2024-02-04T11:34:14;3.37;;;0.50;;
6259;SDS011;3163;51.516;4.000;2024-02-04T11:36:40;0.53;;;0.50;;
6259;SDS011;3163;51.516;4.000;2024-02-04T11:39:12;2.47;;;0.60;;
6259;SDS011;3163;51.516;4.000;2024-02-04T11:41:46;0.70;;;0.40;;
6259;SDS011;3163;51.516;4.000;2024-02-04T11:44:12;5.43;;;0.50;;
6259;SDS011;3163;51.516;4.000;2024-02-04T11:46:38;1.17;;;0.30;;
6259;SDS011;3163;51.516;4.000;2024-02-04T11:49:13;1.50;;;0.67;;
6259;SDS011;3163;51.516;4.000;2024-02-04T11:51:40;0.30;;;0.30;;
6259;SDS011;3163;51.516;4.000;2024-02-04T11:54:06;0.20;;;0.20;;
6259;SDS011;3163;51.516;4.000;2024-02-04T11:56:32;1.10;;;0.60;;
6259;SDS011;3163;51.516;4.000;2024-02-04T11:59:00;0.40;;;0.40;;
6259;SDS011;3163;51.516;4.000;2024-02-04T12:01:29;0.30;;;0.30;;
6259;SDS011;3163;51.516;4.000;2024-02-04T12:03:56;5.03;;;0.70;;
6259;SDS011;3163;51.516;4.000;2024-02-04T12:06:22;1.67;;;0.70;;
6259;SDS011;3163;51.516;4.000;2024-02-04T12:08:48;0.27;;;0.27;;
6259;SDS011;3163;51.516;4.000;2024-02-04T12:11:15;0.30;;;0.30;;
6259;SDS011;3163;51.516;4.000;2024-02-04T12:13:41;0.53;;;0.53;;
6259;SDS011;3163;51.516;4.000;2024-02-04T12:16:09;0.63;;;0.50;;
6259;SDS011;3163;51.516;4.000;2024-02-04T12:18:35;0.90;;;0.60;;
6259;SDS011;3163;51.516;4.000;2024-02-04T12:21:01;1.63;;;0.73;;
6259;SDS011;3163;51.516;4.000;2024-02-04T12:23:27;0.40;;;0.40;;
6259;SDS011;3163;51.516;4.000;2024-02-04T12:25:54;2.03;;;0.50;;
6259;SDS011;3163;51.516;4.000;2024-02-04T12:28:20;0.30;;;0.30;;
6259;SDS011;3163;51.516;4.000;2024-02-04T12:30:52;1.20;;;0.50;;
6259;SDS011;3163;51.516;4.000;2024-02-04T12:33:19;0.73;;;0.47;;
6259;SDS011;3163;51.516;4.000;2024-02-04T12:35:49;1.50;;;0.87;;
6259;SDS011;3163;51.516;4.000;2024-02-04T12:38:15;0.60;;;0.60;;
6259;SDS011;3163;51.516;4.000;2024-02-04T12:40:44;0.77;;;0.43;;
6259;SDS011;3163;51.516;4.000;2024-02-04T12:43:11;0.17;;;0.17;;
6259;SDS011;3163;51.516;4.000;2024-02-04T12:45:37;4.30;;;0.60;;
6259;SDS011;3163;51.516;4.000;2024-02-04T12:48:03;1.70;;;0.30;;
6259;SDS011;3163;51.516;4.000;2024-02-04T12:50:29;18.33;;;0.73;;
6259;SDS011;3163;51.516;4.000;2024-02-04T12:53:09;2.10;;;0.50;;
6259;SDS011;3163;51.516;4.000;2024-02-04T12:55:37;1.30;;;0.90;;
6259;SDS011;3163;51.516;4.000;2024-02-04T13:00:37;0.20;;;0.20;;
6259;SDS011;3163;51.516;4.000;2024-02-04T13:03:03;1.17;;;0.80;;
6259;SDS011;3163;51.516;4.000;2024-02-04T13:05:30;0.60;;;0.50;;
6259;SDS011;3163;51.516;4.000;2024-02-04T13:07:57;0.20;;;0.20;;
6259;SDS011;3163;51.516;4.000;2024-02-04T13:10:24;2.83;;;1.13;;
6259;SDS011;3163;51.516;4.000;2024-02-04T13:12:57;3.50;;;0.47;;
6259;SDS011;3163;51.516;4.000;2024-02-04T13:15:25;2.40;;;0.57;;
6259;SDS011;3163;51.516;4.000;2024-02-04T13:17:50;0.97;;;0.50;;
6259;SDS011;3163;51.516;4.000;2024-02-04T13:20:16;0.77;;;0.70;;
6259;SDS011;3163;51.516;4.000;2024-02-04T13:22:42;2.70;;;1.07;;
6259;SDS011;3163;51.516;4.000;2024-02-04T13:25:09;1.27;;;0.30;;
6259;SDS011;3163;51.516;4.000;2024-02-04T13:27:35;0.43;;;0.37;;
6259;SDS011;3163;51.516;4.000;2024-02-04T13:30:01;2.63;;;0.70;;
6259;SDS011;3163;51.516;4.000;2024-02-04T13:32:27;1.63;;;1.07;;
6259;SDS011;3163;51.516;4.000;2024-02-04T13:34:53;4.57;;;1.43;;
6259;SDS011;3163;51.516;4.000;2024-02-04T13:37:19;1.20;;;0.50;;
6259;SDS011;3163;51.516;4.000;2024-02-04T13:39:45;0.50;;;0.50;;
6259;SDS011;3163;51.516;4.000;2024-02-04T13:42:11;1.80;;;0.70;;
6259;SDS011;3163;51.516;4.000;2024-02-04T13:44:37;1.87;;;1.10;;
6259;SDS011;3163;51.516;4.000;2024-02-04T13:47:03;2.50;;;0.83;;
6259;SDS011;3163;51.516;4.000;2024-02-04T13:49:30;2.10;;;1.10;;
6259;SDS011;3163;51.516;4.000;2024-02-04T13:51:56;1.33;;;1.07;;
6259;SDS011;3163;51.516;4.000;2024-02-04T13:54:22;3.85;;;1.15;;
6259;SDS011;3163;51.516;4.000;2024-02-04T13:56:48;0.67;;;0.63;;
6259;SDS011;3163;51.516;4.000;2024-02-04T13:59:14;1.60;;;0.57;;
6259;SDS011;3163;51.516;4.000;2024-02-04T14:01:41;3.50;;;1.10;;
6259;SDS011;3163;51.516;4.000;2024-02-04T14:04:07;1.30;;;0.90;;
6259;SDS011;3163;51.516;4.000;2024-02-04T14:06:33;1.03;;;0.90;;
6259;SDS011;3163;51.516;4.000;2024-02-04T14:08:59;3.93;;;0.93;;
6259;SDS011;3163;51.516;4.000;2024-02-04T14:11:25;0.97;;;0.37;;
6259;SDS011;3163;51.516;4.000;2024-02-04T14:13:51;4.20;;;0.63;;
6259;SDS011;3163;51.516;4.000;2024-02-04T14:16:17;4.00;;;1.03;;
6259;SDS011;3163;51.516;4.000;2024-02-04T14:18:43;2.47;;;0.90;;
6259;SDS011;3163;51.516;4.000;2024-02-04T14:21:11;4.07;;;1.00;;
6259;SDS011;3163;51.516;4.000;2024-02-04T14:23:39;3.60;;;0.73;;
6259;SDS011;3163;51.516;4.000;2024-02-04T14:26:05;1.33;;;0.83;;
6259;SDS011;3163;51.516;4.000;2024-02-04T14:28:33;3.93;;;0.93;;
6259;SDS011;3163;51.516;4.000;2024-02-04T14:31:06;0.63;;;0.53;;
6259;SDS011;3163;51.516;4.000;2024-02-04T14:33:32;4.33;;;1.07;;
6259;SDS011;3163;51.516;4.000;2024-02-04T14:35:58;2.00;;;0.70;;
6259;SDS011;3163;51.516;4.000;2024-02-04T14:38:25;1.17;;;0.80;;
6259;SDS011;3163;51.516;4.000;2024-02-04T14:40:51;2.87;;;1.27;;
6259;SDS011;3163;51.516;4.000;2024-02-04T14:43:17;2.30;;;0.70;;
6259;SDS011;3163;51.516;4.000;2024-02-04T14:45:46;3.87;;;1.20;;
6259;SDS011;3163;51.516;4.000;2024-02-04T14:48:12;0.60;;;0.60;;
6259;SDS011;3163;51.516;4.000;2024-02-04T14:50:38;0.87;;;0.87;;
6259;SDS011;3163;51.516;4.000;2024-02-04T14:53:05;1.73;;;0.87;;
6259;SDS011;3163;51.516;4.000;2024-02-04T14:55:32;7.47;;;0.60;;
6259;SDS011;3163;51.516;4.000;2024-02-04T14:57:58;3.37;;;1.50;;
6259;SDS011;3163;51.516;4.000;2024-02-04T15:00:24;3.10;;;1.03;;
6259;SDS011;3163;51.516;4.000;2024-02-04T15:02:53;2.00;;;0.90;;
6259;SDS011;3163;51.516;4.000;2024-02-04T15:05:19;5.17;;;1.10;;
6259;SDS011;3163;51.516;4.000;2024-02-04T15:07:47;3.83;;;1.30;;
6259;SDS011;3163;51.516;4.000;2024-02-04T15:10:13;0.30;;;0.30;;
6259;SDS011;3163;51.516;4.000;2024-02-04T15:12:39;4.17;;;1.20;;
6259;SDS011;3163;51.516;4.000;2024-02-04T15:15:05;3.40;;;1.33;;
6259;SDS011;3163;51.516;4.000;2024-02-04T15:17:35;4.67;;;1.67;;
6259;SDS011;3163;51.516;4.000;2024-02-04T15:20:01;3.93;;;0.67;;
6259;SDS011;3163;51.516;4.000;2024-02-04T15:22:27;2.80;;;1.07;;
6259;SDS011;3163;51.516;4.000;2024-02-04T15:24:53;2.13;;;1.27;;